メインページ
METAR-TAF:

METAR-TAF

空港 :

ポンタ・デルガダ空港

ポンタ・デルガダ, アゾレス諸島, ポルトガル

緯度: 37-44N, 経度: 025-42W, 海抜: 71m

現時点の気象観測

当レポートは44分前の22:30(UTC)に作成
南/南西の風 16kt
気温 18°C
湿度 94%
気圧 1021 hPa
視程10km以上
高度600ftの雲はほとんどない
高度1200ftの雲は散在している
高度3000ftの千切れ雲あり

METAR: LPPD 112230Z 21016KT 9999 FEW006 SCT012 BKN030 18/17 Q1021

時間: 22:14 (23:14 UTC)

予報

当レポートは3時間44分前の19:30(UTC)に作成
予報は11日の 19時(UTC)から 12日の 18時(UTC)まで有効
南/南西の風 20kt
視程10km以上
高度500ftの雲は散在している
高度1200ftの千切れ雲あり
11日の 20時(UTC)から 12日の 07時(UTC)まで一時的に
南/南西の風 25kt、最大35ktの突風を伴う
視程: 3000m
高度200ftの雲は散在している
高度400ftの千切れ雲あり
雨, 霧雨, 靄
12日の 07時(UTC)から 12日の 09時(UTC)まで徐々に
北西の風 23kt
高度1500ftの雲は散在している
12日の 09時(UTC)から 12日の 12時(UTC)まで一時的に
北西の風 25kt、最大35ktの突風を伴う
視程: 8000m
高度1200ftの千切れ雲あり
にわか雨
12日の 15時(UTC)から 12日の 18時(UTC)まで徐々に
北/北西の風 12kt
高度3000ftの雲は散在している

TAF: LPPD 111930Z 1119/1218 20020KT 9999 SCT005 BKN012 TEMPO 1120/1207 21025G35KT 3000 RADZ BR SCT002 BKN004 BECMG 1207/1209 31023KT SCT015 TEMPO 1209/1212 32025G35KT 8000 SHRA BKN012 BECMG 1215/1218 34012KT SCT030

4,000以上の空港の気象観測と天気予報(METAR報とTAF報)

利用可能な観測所は地図上に黄色い丸と赤い丸で示す。

丸の上にカーソルを重ねると観測所名を参照できる。

次にクリックすると気象観測と天気予報を参照できる。

マップの切り替え:黒色「×」印の緑ボタンをクリックして拡大、「-」印の緑ボタンをクリックして縮小、緑色の三角印をクリックして隣りの地図に切り替え


METAR-TAF: